Decoded Metar for YMEN (MELBOURNE in AUSTRALIA) (IATA:MEB) | Meteo·Mobile Aviation Weather
aviador You're here:

YMEN Decoded Metar

MELBOURNE in AUSTRALIA
Report Time2019-10-22 14:00:00
UTC Time2019-10-22 14:18:26
Flight Rules vfr VFR
Wind290° at 05 kt
W.Decomp.*RWY 26: 4.7 kt HW 1.6 kt RCW
RWY 35: 1.6 kt HW 4.7 kt LCW
Visibility9999 m
Phenomena:N/A
Clouds:N/A
Expected CloudBase > 1,200 ft AGL from Temp-Dew spread
CeilingNone
Temp11°C (ISA -3)
Dew Point08°C (82% RH)
AAT8.7°C
QNH1022 hPa
Density Alt-285 ft
Elevation282 ft
Report Wrong Elevation
Raw Report
METAR YMEN 221400Z AUTO 29005KT 9999 // NCD 11/08 Q1022=

Extra information for YMEN:More info

Metar Taf Metar & Taf Last 4 Metars F.Rules Stats Wind Profile Meteogram Temp Stats Airport Information Weather charts Add Link Nearby VenuesMetar ALERT Operation Metar Decoded Social comments